createdAt,value
2018-04-15T00:01:23.475Z,67.79
2018-04-15T00:03:51.806Z,67.71
2018-04-15T00:06:20.131Z,67.67
2018-04-15T00:08:49.185Z,68.59
2018-04-15T00:11:17.430Z,68.08
2018-04-15T00:13:45.720Z,67.37
2018-04-15T00:16:14.218Z,67.77
2018-04-15T00:18:42.516Z,68.18
2018-04-15T00:21:10.818Z,69.22
2018-04-15T00:23:39.106Z,68.53
2018-04-15T00:26:07.397Z,67.84
2018-04-15T00:28:35.727Z,67.15
2018-04-15T00:31:04.007Z,67.97
2018-04-15T00:33:32.349Z,68.49
2018-04-15T00:36:00.678Z,68.80
2018-04-15T00:38:29.024Z,69.74
2018-04-15T00:40:57.291Z,69.36
2018-04-15T00:43:25.595Z,69.21
2018-04-15T00:45:54.042Z,69.35
2018-04-15T00:48:22.277Z,69.63
2018-04-15T00:50:50.594Z,69.41
2018-04-15T00:53:18.869Z,69.62
2018-04-15T00:55:47.776Z,69.00
2018-04-15T00:58:16.141Z,69.31
2018-04-15T01:00:44.435Z,69.23
2018-04-15T01:03:12.751Z,69.63
2018-04-15T01:05:41.042Z,68.94
2018-04-15T01:08:09.323Z,68.69
2018-04-15T01:10:37.653Z,68.76
2018-04-15T01:13:05.959Z,67.11
2018-04-15T01:15:34.252Z,67.30
2018-04-15T01:18:03.186Z,67.14
2018-04-15T01:20:31.464Z,66.96
2018-04-15T01:22:59.782Z,67.06
2018-04-15T01:25:28.030Z,68.46
2018-04-15T01:27:56.361Z,69.46
2018-04-15T01:30:24.639Z,69.51
2018-04-15T01:32:52.945Z,70.20
2018-04-15T01:35:21.230Z,70.52
2018-04-15T01:37:49.513Z,70.56
2018-04-15T01:40:17.813Z,70.36
2018-04-15T01:42:46.126Z,70.64
2018-04-15T01:45:14.710Z,70.28
2018-04-15T01:47:43.018Z,70.87
2018-04-15T01:50:11.326Z,71.23
2018-04-15T01:52:39.614Z,70.98
2018-04-15T01:55:07.870Z,70.78
2018-04-15T01:57:36.175Z,70.04
2018-04-15T02:00:04.566Z,69.44
2018-04-15T02:02:32.908Z,68.71
2018-04-15T02:05:01.198Z,68.49
2018-04-15T02:07:29.503Z,68.25
2018-04-15T02:09:57.779Z,68.17
2018-04-15T02:12:26.134Z,68.01
2018-04-15T02:14:54.389Z,67.67
2018-04-15T02:17:22.714Z,67.82
2018-04-15T02:19:51.044Z,67.80
2018-04-15T02:22:19.318Z,68.08
2018-04-15T02:24:47.623Z,68.13
2018-04-15T02:27:15.882Z,68.23
2018-04-15T02:29:44.184Z,68.87
2018-04-15T02:32:12.484Z,68.57
2018-04-15T02:34:40.780Z,68.46
2018-04-15T02:37:09.059Z,68.74
2018-04-15T02:39:37.415Z,69.26
2018-04-15T02:42:05.741Z,70.59
2018-04-15T02:44:34.078Z,71.08
2018-04-15T02:47:02.389Z,71.37
2018-04-15T02:49:30.670Z,71.22
2018-04-15T02:51:58.947Z,71.26
2018-04-15T02:54:27.237Z,71.36
2018-04-15T02:56:55.502Z,71.79
2018-04-15T02:59:23.810Z,71.53
2018-04-15T03:01:52.127Z,71.59
2018-04-15T03:04:20.413Z,72.29
2018-04-15T03:06:48.707Z,71.48
2018-04-15T03:09:16.990Z,71.27
2018-04-15T03:11:45.294Z,72.08
2018-04-15T03:14:13.589Z,72.37
2018-04-15T03:16:41.877Z,72.37
2018-04-15T03:19:10.158Z,72.69
2018-04-15T03:21:38.490Z,72.84
2018-04-15T03:24:06.803Z,73.30
2018-04-15T03:26:35.087Z,74.07
2018-04-15T03:29:03.690Z,74.53
2018-04-15T03:31:32.190Z,75.18
2018-04-15T03:34:00.463Z,75.00
2018-04-15T03:36:28.763Z,74.73
2018-04-15T03:38:57.027Z,75.21
2018-04-15T03:41:25.328Z,75.48
2018-04-15T03:43:53.660Z,76.02
2018-04-15T03:46:21.962Z,75.95
2018-04-15T03:48:50.275Z,75.86
2018-04-15T03:51:18.558Z,76.29
2018-04-15T03:53:46.898Z,76.39
2018-04-15T03:56:15.173Z,76.44
2018-04-15T03:58:43.476Z,76.73
2018-04-15T04:01:11.783Z,76.66
2018-04-15T04:03:40.111Z,76.86
2018-04-15T04:06:08.449Z,76.34
2018-04-15T04:08:36.755Z,75.72
2018-04-15T04:11:05.264Z,75.38
2018-04-15T04:13:33.570Z,75.23
2018-04-15T04:16:01.840Z,75.40
2018-04-15T04:18:41.949Z,74.79
2018-04-15T04:21:22.062Z,75.28
2018-04-15T04:24:03.097Z,74.85
2018-04-15T04:26:31.619Z,76.07
2018-04-15T04:28:59.838Z,76.54
2018-04-15T04:31:28.150Z,76.73
2018-04-15T04:33:56.884Z,76.74
2018-04-15T04:36:25.166Z,76.59
2018-04-15T04:38:53.496Z,76.67
2018-04-15T04:41:21.758Z,76.78
2018-04-15T04:43:50.069Z,76.68
2018-04-15T04:46:18.384Z,76.59
2018-04-15T04:48:46.673Z,76.71
2018-04-15T04:51:14.929Z,77.38
2018-04-15T04:53:43.215Z,77.28
2018-04-15T04:56:11.526Z,77.22
2018-04-15T04:58:39.794Z,77.07
2018-04-15T05:01:08.103Z,77.29
2018-04-15T05:03:36.423Z,77.36
2018-04-15T05:06:04.764Z,77.37
2018-04-15T05:08:33.043Z,77.61
2018-04-15T05:11:01.350Z,77.38
2018-04-15T05:13:29.647Z,77.16
2018-04-15T05:15:58.549Z,76.46
2018-04-15T05:18:26.859Z,77.01
2018-04-15T05:20:55.126Z,77.30
2018-04-15T05:23:23.458Z,77.66
2018-04-15T05:25:51.721Z,77.75
2018-04-15T05:28:20.021Z,77.32
2018-04-15T05:30:48.300Z,77.56
2018-04-15T05:33:16.594Z,77.62
2018-04-15T05:35:44.855Z,77.26
2018-04-15T05:38:13.174Z,76.87
2018-04-15T05:40:41.466Z,76.97
2018-04-15T05:43:09.770Z,76.24
2018-04-15T05:45:38.048Z,77.85
2018-04-15T05:48:06.343Z,78.78
2018-04-15T05:50:34.606Z,78.66
2018-04-15T05:53:02.905Z,78.01
2018-04-15T05:55:31.365Z,77.67
2018-04-15T05:57:59.674Z,77.34
2018-04-15T06:00:27.950Z,77.70
2018-04-15T06:02:56.266Z,77.86
2018-04-15T06:05:24.573Z,77.83
2018-04-15T06:07:52.864Z,78.21
2018-04-15T06:10:21.183Z,78.40
2018-04-15T06:12:49.506Z,78.28
2018-04-15T06:15:17.801Z,78.34
2018-04-15T06:17:46.054Z,78.51
2018-04-15T06:20:14.357Z,78.94
2018-04-15T06:22:42.619Z,78.63
2018-04-15T06:25:10.913Z,78.63
2018-04-15T06:27:39.166Z,78.65
2018-04-15T06:30:07.460Z,78.71
2018-04-15T06:32:35.747Z,79.66
2018-04-15T06:35:04.099Z,79.85
2018-04-15T06:37:32.369Z,79.56
2018-04-15T06:40:00.697Z,79.22
2018-04-15T06:42:31.199Z,79.38
2018-04-15T06:44:59.518Z,78.48
2018-04-15T06:47:27.823Z,78.56
2018-04-15T06:49:56.130Z,78.23
2018-04-15T06:52:24.391Z,78.19
2018-04-15T06:54:52.664Z,77.56
2018-04-15T06:57:20.951Z,77.60
2018-04-15T06:59:49.219Z,77.29
2018-04-15T07:02:17.510Z,76.49
2018-04-15T07:04:45.778Z,76.51
2018-04-15T07:07:14.062Z,75.91
2018-04-15T07:09:42.324Z,75.59
2018-04-15T07:12:10.616Z,74.52
2018-04-15T07:14:38.874Z,73.63
2018-04-15T07:17:07.151Z,73.51
2018-04-15T07:19:35.429Z,74.38
2018-04-15T07:22:04.766Z,74.05
2018-04-15T07:24:33.023Z,73.44
2018-04-15T07:27:01.347Z,73.10
2018-04-15T07:29:29.645Z,73.07
2018-04-15T07:31:58.357Z,72.57
2018-04-15T07:34:26.625Z,71.69
2018-04-15T07:36:55.410Z,70.54
2018-04-15T07:39:23.698Z,70.56
2018-04-15T07:41:52.001Z,70.03
2018-04-15T07:44:20.247Z,70.08
2018-04-15T07:46:48.557Z,69.62
2018-04-15T07:49:16.847Z,68.83
2018-04-15T07:51:45.114Z,67.57
2018-04-15T07:54:13.395Z,67.11
2018-04-15T07:56:41.703Z,66.86
2018-04-15T07:59:10.013Z,66.60
2018-04-15T08:01:38.284Z,66.86
2018-04-15T08:04:06.799Z,66.66
2018-04-15T08:06:35.037Z,66.17
2018-04-15T08:09:03.347Z,65.44
2018-04-15T08:11:31.614Z,65.76
2018-04-15T08:13:59.918Z,66.16
2018-04-15T08:16:28.190Z,65.78
2018-04-15T08:18:56.474Z,65.01
2018-04-15T08:21:24.727Z,64.66
2018-04-15T08:23:53.038Z,64.08
2018-04-15T08:26:21.330Z,63.39
2018-04-15T08:28:49.633Z,63.27
2018-04-15T08:31:18.638Z,61.70
2018-04-15T08:33:46.958Z,62.01
2018-04-15T08:36:15.218Z,60.15
2018-04-15T08:38:43.515Z,60.95
2018-04-15T08:41:11.804Z,61.07
2018-04-15T08:43:40.083Z,59.78
2018-04-15T08:46:08.385Z,60.35
2018-04-15T08:48:36.665Z,59.26
2018-04-15T08:51:05.568Z,58.41
2018-04-15T08:53:33.846Z,59.52
2018-04-15T08:56:02.152Z,58.66
2018-04-15T08:58:30.418Z,58.39
2018-04-15T09:00:58.743Z,58.08
2018-04-15T09:03:27.010Z,57.54
2018-04-15T09:05:55.311Z,57.44
2018-04-15T09:08:23.568Z,56.14
2018-04-15T09:10:51.857Z,55.26
2018-04-15T09:13:20.170Z,55.55
2018-04-15T09:15:48.501Z,55.77
2018-04-15T09:18:16.835Z,56.25
2018-04-15T09:20:45.067Z,55.44
2018-04-15T09:23:13.346Z,55.81
2018-04-15T09:25:42.153Z,55.48
2018-04-15T09:28:10.810Z,54.75
2018-04-15T09:30:44.734Z,54.71
2018-04-15T09:33:13.026Z,54.57
2018-04-15T09:35:41.305Z,54.66
2018-04-15T09:38:09.598Z,54.57
2018-04-15T09:40:38.013Z,53.99
2018-04-15T09:43:06.299Z,53.48
2018-04-15T09:45:34.580Z,52.74
2018-04-15T09:48:02.855Z,52.80
2018-04-15T09:50:31.322Z,52.64
2018-04-15T09:52:59.592Z,52.42
2018-04-15T09:55:27.858Z,52.09
2018-04-15T09:57:56.837Z,50.84
2018-04-15T10:00:25.106Z,51.09
2018-04-15T10:02:53.452Z,50.61
2018-04-15T10:05:21.742Z,50.12
2018-04-15T10:07:50.043Z,50.77
2018-04-15T10:10:18.435Z,51.22
2018-04-15T10:12:46.756Z,51.03
2018-04-15T10:15:15.006Z,50.83
2018-04-15T10:17:43.306Z,49.54
2018-04-15T10:20:11.608Z,48.92
2018-04-15T10:22:39.909Z,48.81
2018-04-15T10:25:08.184Z,48.91
2018-04-15T10:27:36.482Z,48.91
2018-04-15T10:30:04.776Z,48.54
2018-04-15T10:32:33.046Z,47.62
2018-04-15T10:35:01.345Z,47.13
2018-04-15T10:37:29.605Z,47.06
2018-04-15T10:39:57.914Z,46.90
2018-04-15T10:42:26.396Z,45.99
2018-04-15T10:44:54.717Z,46.65
2018-04-15T10:47:22.993Z,46.43
2018-04-15T10:49:51.267Z,46.77
2018-04-15T10:52:19.542Z,47.34
2018-04-15T10:54:47.839Z,47.66
2018-04-15T10:57:16.145Z,47.24
2018-04-15T10:59:44.482Z,46.95
2018-04-15T11:02:12.730Z,46.38
2018-04-15T11:04:41.031Z,46.41
2018-04-15T11:07:09.323Z,46.51
2018-04-15T11:09:37.580Z,46.15
2018-04-15T11:12:05.943Z,46.97
2018-04-15T11:14:34.315Z,46.07
2018-04-15T11:17:02.609Z,46.31
2018-04-15T11:19:30.870Z,46.43
2018-04-15T11:21:59.187Z,46.71
2018-04-15T11:24:27.459Z,46.38
2018-04-15T11:26:55.775Z,45.86
2018-04-15T11:29:24.054Z,44.79
2018-04-15T11:31:52.359Z,44.61
2018-04-15T11:34:20.751Z,43.72
2018-04-15T11:36:49.028Z,43.88
2018-04-15T11:39:17.294Z,45.00
2018-04-15T11:41:45.593Z,45.10
2018-04-15T11:44:13.850Z,45.02
2018-04-15T11:46:42.138Z,44.80
2018-04-15T11:49:10.408Z,44.57
2018-04-15T11:51:38.787Z,43.82
2018-04-15T11:54:07.153Z,44.36
2018-04-15T11:56:35.525Z,44.19
2018-04-15T11:59:03.765Z,44.08
2018-04-15T12:01:32.058Z,44.67
2018-04-15T12:04:00.367Z,44.86
2018-04-15T12:06:28.649Z,45.06
2018-04-15T12:08:57.000Z,45.30
2018-04-15T12:11:25.299Z,44.99
2018-04-15T12:13:53.599Z,44.75
2018-04-15T12:16:21.853Z,44.81
2018-04-15T12:18:50.162Z,44.62
2018-04-15T12:21:18.453Z,45.44
2018-04-15T12:23:46.758Z,45.54
2018-04-15T12:26:15.031Z,45.47
2018-04-15T12:28:43.331Z,46.28
2018-04-15T12:31:11.705Z,45.87
2018-04-15T12:33:40.040Z,45.33
2018-04-15T12:36:08.253Z,45.16
2018-04-15T12:38:36.555Z,44.80
2018-04-15T12:41:05.076Z,44.21
2018-04-15T12:43:33.391Z,44.42
2018-04-15T12:46:01.755Z,43.98
2018-04-15T12:48:30.036Z,44.79
2018-04-15T12:50:58.335Z,44.33
2018-04-15T12:53:26.617Z,43.67
2018-04-15T12:55:54.919Z,43.99
2018-04-15T12:58:23.215Z,44.40
2018-04-15T13:00:51.509Z,44.49
2018-04-15T13:03:20.437Z,44.10
2018-04-15T13:05:48.746Z,43.34
2018-04-15T13:08:17.054Z,43.21
2018-04-15T13:10:45.319Z,42.36
2018-04-15T13:13:13.705Z,42.76
2018-04-15T13:15:41.967Z,42.32
2018-04-15T13:18:10.291Z,42.07
2018-04-15T13:20:38.599Z,41.58
2018-04-15T13:23:06.884Z,41.80
2018-04-15T13:25:35.193Z,42.11
2018-04-15T13:28:04.362Z,41.81
2018-04-15T13:30:32.687Z,42.12
2018-04-15T13:33:00.984Z,41.74
2018-04-15T13:35:29.302Z,41.69
2018-04-15T13:37:57.571Z,42.22
2018-04-15T13:40:25.859Z,41.86
2018-04-15T13:42:54.177Z,41.48
2018-04-15T13:45:22.454Z,39.80
2018-04-15T13:47:50.755Z,40.29
2018-04-15T13:50:19.055Z,39.56
2018-04-15T13:52:47.366Z,39.32
2018-04-15T13:55:15.703Z,39.12
2018-04-15T13:57:44.006Z,39.85
2018-04-15T14:00:12.307Z,40.36
2018-04-15T14:02:40.678Z,39.91
2018-04-15T14:05:08.965Z,40.21
2018-04-15T14:07:37.326Z,40.06
2018-04-15T14:10:05.766Z,39.94
2018-04-15T14:12:34.087Z,40.00
2018-04-15T14:15:02.421Z,39.88
2018-04-15T14:17:30.729Z,40.29
2018-04-15T14:19:59.064Z,40.84
2018-04-15T14:22:27.315Z,40.57
2018-04-15T14:24:55.697Z,40.48
2018-04-15T14:27:23.994Z,41.07
2018-04-15T14:29:52.290Z,41.08
2018-04-15T14:32:20.600Z,41.62
2018-04-15T14:34:48.924Z,41.96
2018-04-15T14:37:17.214Z,42.25
2018-04-15T14:39:45.507Z,41.93
2018-04-15T14:42:13.815Z,41.88
2018-04-15T14:44:42.615Z,41.25
2018-04-15T14:47:10.923Z,41.40
2018-04-15T14:49:40.120Z,41.69
2018-04-15T14:52:08.435Z,42.15
2018-04-15T14:54:36.722Z,42.08
2018-04-15T14:57:05.058Z,42.22
2018-04-15T14:59:33.403Z,42.12
2018-04-15T15:02:01.699Z,42.21
2018-04-15T15:04:29.965Z,42.39
2018-04-15T15:06:58.265Z,42.73
2018-04-15T15:09:26.659Z,43.02
2018-04-15T15:11:56.914Z,42.78
2018-04-15T15:14:25.176Z,42.72
2018-04-15T15:16:53.480Z,42.75
2018-04-15T15:19:21.780Z,43.00
2018-04-15T15:21:50.103Z,43.11
2018-04-15T15:24:18.737Z,42.94
2018-04-15T15:26:47.074Z,43.15
2018-04-15T15:29:15.414Z,43.07
2018-04-15T15:31:43.780Z,42.90
2018-04-15T15:34:12.074Z,42.91
2018-04-15T15:36:40.350Z,43.02
2018-04-15T15:39:08.670Z,43.41
2018-04-15T15:41:37.062Z,43.40
2018-04-15T15:44:05.380Z,43.62
2018-04-15T15:46:33.658Z,43.41
2018-04-15T15:49:01.942Z,43.54
2018-04-15T15:51:30.214Z,43.67
2018-04-15T15:53:58.560Z,43.74
2018-04-15T15:56:26.843Z,43.59
2018-04-15T15:58:55.171Z,43.31
2018-04-15T16:01:23.447Z,43.38
2018-04-15T16:03:51.799Z,43.11
2018-04-15T16:06:20.047Z,43.23
2018-04-15T16:08:48.367Z,43.28
2018-04-15T16:11:16.627Z,43.14
2018-04-15T16:13:45.887Z,42.95
2018-04-15T16:16:14.223Z,42.97
2018-04-15T16:18:42.466Z,43.59
2018-04-15T16:21:10.775Z,43.91
2018-04-15T16:23:39.075Z,44.10
2018-04-15T16:26:07.372Z,44.35
2018-04-15T16:28:35.668Z,44.36
2018-04-15T16:31:03.986Z,44.35
2018-04-15T16:33:33.781Z,44.84
2018-04-15T16:36:02.085Z,44.60
2018-04-15T16:38:30.353Z,44.62
2018-04-15T16:40:58.654Z,44.72
2018-04-15T16:43:26.905Z,44.92
2018-04-15T16:45:55.196Z,45.44
2018-04-15T16:48:23.454Z,46.37
2018-04-15T16:50:51.843Z,47.54
2018-04-15T16:53:20.039Z,48.09
2018-04-15T16:55:48.379Z,48.23
2018-04-15T16:58:16.678Z,50.82
2018-04-15T17:00:44.995Z,49.98
2018-04-15T17:03:13.277Z,50.10
2018-04-15T17:05:41.599Z,50.54
2018-04-15T17:08:09.873Z,49.79
2018-04-15T17:10:38.214Z,50.19
2018-04-15T17:13:06.518Z,50.51
2018-04-15T17:15:34.765Z,51.51
2018-04-15T17:18:03.094Z,52.92
2018-04-15T17:20:31.480Z,52.24
2018-04-15T17:22:59.868Z,52.20
2018-04-15T17:25:28.145Z,51.06
2018-04-15T17:27:56.414Z,53.37
2018-04-15T17:30:24.697Z,54.08
2018-04-15T17:32:53.002Z,55.04
2018-04-15T17:35:21.280Z,56.07
2018-04-15T17:37:49.581Z,55.45
2018-04-15T17:40:17.890Z,56.64
2018-04-15T17:42:46.228Z,58.32
2018-04-15T17:45:14.572Z,58.87
2018-04-15T17:47:42.920Z,59.19
2018-04-15T17:50:11.184Z,59.54
2018-04-15T17:52:39.537Z,58.62
2018-04-15T17:55:07.858Z,58.92
2018-04-15T17:57:36.127Z,59.13
2018-04-15T18:00:04.435Z,60.31
2018-04-15T18:02:32.746Z,59.94
2018-04-15T18:05:01.050Z,59.71
2018-04-15T18:07:29.416Z,59.91
2018-04-15T18:09:57.722Z,59.43
2018-04-15T18:12:26.085Z,59.22
2018-04-15T18:14:54.400Z,59.70
2018-04-15T18:17:22.690Z,60.74
2018-04-15T18:19:51.019Z,61.90
2018-04-15T18:22:19.324Z,61.95
2018-04-15T18:24:47.632Z,62.67
2018-04-15T18:27:15.903Z,63.01
2018-04-15T18:29:44.226Z,62.56
2018-04-15T18:32:12.513Z,63.13
2018-04-15T18:34:40.783Z,63.46
2018-04-15T18:37:09.071Z,64.12
2018-04-15T18:39:37.478Z,64.04
2018-04-15T18:42:05.786Z,64.40
2018-04-15T18:44:34.103Z,64.30
2018-04-15T18:47:02.371Z,64.82
2018-04-15T18:49:30.660Z,64.90
2018-04-15T18:51:58.978Z,65.63
2018-04-15T18:54:27.330Z,67.05
2018-04-15T18:56:55.622Z,67.74
2018-04-15T18:59:23.892Z,68.00
2018-04-15T19:01:52.198Z,69.01
2018-04-15T19:04:20.484Z,68.96
2018-04-15T19:06:48.788Z,68.76
2018-04-15T19:09:17.084Z,69.45
2018-04-15T19:11:45.395Z,70.24
2018-04-15T19:14:13.650Z,71.26
2018-04-15T19:16:42.452Z,71.46
2018-04-15T19:19:10.717Z,71.67
2018-04-15T19:21:39.009Z,71.63
2018-04-15T19:24:07.263Z,71.63
2018-04-15T19:26:35.567Z,71.86
2018-04-15T19:31:38.362Z,72.24
2018-04-15T19:34:06.658Z,72.10
2018-04-15T19:36:35.057Z,71.96
2018-04-15T19:39:03.273Z,71.77
2018-04-15T19:41:31.584Z,71.45
2018-04-15T19:43:59.857Z,72.69
2018-04-15T19:46:28.153Z,73.18
2018-04-15T19:48:57.226Z,73.61
2018-04-15T19:51:25.734Z,73.81
2018-04-15T19:53:54.011Z,74.06
2018-04-15T19:56:22.275Z,74.09
2018-04-15T19:58:50.995Z,74.10
2018-04-15T20:01:19.252Z,74.05
2018-04-15T20:03:47.558Z,73.95
2018-04-15T20:06:15.840Z,73.73
2018-04-15T20:08:44.136Z,74.09
2018-04-15T20:11:12.430Z,74.63
2018-04-15T20:13:40.736Z,74.97
2018-04-15T20:16:09.023Z,74.35
2018-04-15T20:18:37.659Z,74.47
2018-04-15T20:21:05.925Z,74.98
2018-04-15T20:23:35.961Z,75.46
2018-04-15T20:26:04.236Z,75.66
2018-04-15T20:28:32.525Z,75.07
2018-04-15T20:31:00.792Z,74.92
2018-04-15T20:33:29.113Z,74.64
2018-04-15T20:35:57.380Z,74.86
2018-04-15T20:38:25.676Z,74.95
2018-04-15T20:40:53.931Z,75.83
2018-04-15T20:43:22.263Z,76.34
2018-04-15T20:45:50.563Z,76.28
2018-04-15T20:48:18.922Z,75.81
2018-04-15T20:50:47.220Z,75.46
2018-04-15T20:53:15.470Z,75.56
2018-04-15T20:55:43.784Z,75.63
2018-04-15T20:58:12.038Z,75.63
2018-04-15T21:00:40.374Z,75.61
2018-04-15T21:03:08.647Z,75.85
2018-04-15T21:05:36.930Z,76.38
2018-04-15T21:08:05.222Z,76.30
2018-04-15T21:10:33.504Z,76.86
2018-04-15T21:13:01.787Z,75.89
2018-04-15T21:15:30.069Z,75.57
2018-04-15T21:17:58.754Z,73.90
2018-04-15T21:20:27.086Z,69.50
2018-04-15T21:22:55.351Z,67.12
2018-04-15T21:25:23.608Z,66.67
2018-04-15T21:27:51.912Z,66.87
2018-04-15T21:30:20.182Z,66.27
2018-04-15T21:32:48.678Z,68.08
2018-04-15T21:35:17.353Z,69.75
2018-04-15T21:37:45.669Z,71.96
2018-04-15T21:40:13.946Z,73.22
2018-04-15T21:42:42.263Z,73.65
2018-04-15T21:45:10.783Z,74.33
2018-04-15T21:47:39.943Z,74.74
2018-04-15T21:50:08.246Z,75.08
2018-04-15T21:52:36.525Z,75.46
2018-04-15T21:55:05.338Z,75.64
2018-04-15T21:57:33.638Z,75.82
2018-04-15T22:00:01.903Z,75.96
2018-04-15T22:02:30.213Z,76.11
2018-04-15T22:04:58.469Z,76.77
2018-04-15T22:07:26.873Z,77.38
2018-04-15T22:09:55.146Z,77.25
2018-04-15T22:12:23.459Z,76.96
2018-04-15T22:14:51.732Z,77.42
2018-04-15T22:17:20.084Z,77.45
2018-04-15T22:19:48.368Z,77.07
2018-04-15T22:22:16.623Z,76.36
2018-04-15T22:24:45.087Z,75.55
2018-04-15T22:27:13.366Z,74.87
2018-04-15T22:29:41.667Z,74.57
2018-04-15T22:32:09.960Z,74.67
2018-04-15T22:37:13.042Z,74.35
2018-04-15T22:39:41.408Z,74.68
2018-04-15T22:42:09.741Z,75.74
2018-04-15T22:44:38.046Z,75.92
2018-04-15T22:47:06.326Z,76.11
2018-04-15T22:49:35.004Z,76.64
2018-04-15T22:52:03.299Z,76.76
2018-04-15T22:54:31.586Z,76.71
2018-04-15T22:57:05.465Z,76.92
2018-04-15T22:59:33.954Z,77.02
2018-04-15T23:02:02.255Z,76.61
2018-04-15T23:04:30.808Z,75.94
2018-04-15T23:06:59.084Z,75.48
2018-04-15T23:09:27.394Z,75.70
2018-04-15T23:11:55.659Z,76.21
2018-04-15T23:14:24.869Z,77.13
2018-04-15T23:16:53.149Z,77.93
2018-04-15T23:19:21.460Z,77.88
2018-04-15T23:21:49.774Z,78.43
2018-04-15T23:24:18.508Z,78.14
2018-04-15T23:26:46.770Z,78.20
2018-04-15T23:29:15.083Z,78.14
2018-04-15T23:31:43.387Z,78.08
2018-04-15T23:34:11.664Z,77.97
2018-04-15T23:36:39.968Z,77.79
2018-04-15T23:39:08.226Z,77.71
2018-04-15T23:41:36.526Z,77.74
2018-04-15T23:44:04.932Z,77.80
2018-04-15T23:46:33.213Z,77.92
2018-04-15T23:49:01.491Z,78.00
2018-04-15T23:51:29.775Z,77.85
2018-04-15T23:53:58.079Z,77.28
2018-04-15T23:56:26.369Z,77.40
2018-04-15T23:58:54.663Z,77.65
